createdAt,value
2018-01-16T00:01:57.174Z,11.00
2018-01-16T00:04:24.861Z,10.60
2018-01-16T00:06:52.551Z,13.13
2018-01-16T00:09:20.241Z,12.37
2018-01-16T00:11:47.938Z,13.27
2018-01-16T00:14:15.628Z,14.23
2018-01-16T00:16:44.073Z,15.53
2018-01-16T00:19:11.725Z,15.77
2018-01-16T00:21:39.431Z,15.27
2018-01-16T00:24:07.145Z,15.80
2018-01-16T00:26:34.818Z,17.90
2018-01-16T00:29:02.485Z,17.90
2018-01-16T00:31:30.138Z,19.07
2018-01-16T00:33:57.799Z,17.57
2018-01-16T00:36:25.462Z,19.63
2018-01-16T00:38:53.133Z,20.00
2018-01-16T00:41:22.956Z,23.37
2018-01-16T00:43:50.659Z,22.10
2018-01-16T00:46:19.191Z,23.07
2018-01-16T00:48:46.894Z,23.50
2018-01-16T00:51:14.594Z,24.53
2018-01-16T00:53:42.325Z,23.60
2018-01-16T00:56:10.745Z,22.43
2018-01-16T00:58:38.398Z,23.13
2018-01-16T01:01:06.064Z,25.43
2018-01-16T01:03:33.753Z,23.67
2018-01-16T01:06:01.436Z,19.47
2018-01-16T01:08:29.148Z,22.67
2018-01-16T01:11:01.693Z,23.13
2018-01-16T01:13:29.405Z,20.27
2018-01-16T01:15:57.047Z,21.00
2018-01-16T01:18:24.795Z,19.43
2018-01-16T01:20:52.650Z,19.47
2018-01-16T01:23:20.348Z,12.03
2018-01-16T01:25:48.039Z,12.90
2018-01-16T01:28:15.724Z,9.60
2018-01-16T01:30:43.398Z,13.30
2018-01-16T01:33:11.044Z,10.17
2018-01-16T01:35:38.710Z,10.87
2018-01-16T01:38:06.408Z,11.70
2018-01-16T01:40:36.056Z,11.80
2018-01-16T01:43:03.713Z,11.00
2018-01-16T01:45:31.351Z,12.83
2018-01-16T01:47:59.033Z,12.47
2018-01-16T01:50:26.716Z,9.50
2018-01-16T01:52:54.428Z,6.30
2018-01-16T01:55:22.129Z,8.07
2018-01-16T01:57:49.776Z,6.93
2018-01-16T02:00:17.463Z,6.57
2018-01-16T02:02:45.163Z,5.37
2018-01-16T02:05:12.824Z,7.40
2018-01-16T02:07:40.465Z,6.50
2018-01-16T02:10:08.348Z,6.20
2018-01-16T02:12:36.026Z,6.83
2018-01-16T02:15:03.708Z,6.87
2018-01-16T02:17:32.110Z,4.43
2018-01-16T02:19:59.820Z,3.67
2018-01-16T02:22:27.507Z,5.67
2018-01-16T02:24:55.200Z,6.07
2018-01-16T02:27:22.881Z,5.63
2018-01-16T02:29:51.278Z,5.07
2018-01-16T02:32:18.958Z,7.17
2018-01-16T02:34:46.631Z,6.30
2018-01-16T02:37:14.337Z,10.73
2018-01-16T02:39:42.131Z,7.20
2018-01-16T02:42:09.820Z,8.50
2018-01-16T02:44:37.585Z,8.83
2018-01-16T02:47:05.303Z,8.13
2018-01-16T02:49:33.016Z,12.07
2018-01-16T02:52:00.736Z,11.27
2018-01-16T02:54:28.420Z,9.47
2018-01-16T02:56:56.114Z,11.47
2018-01-16T02:59:24.350Z,14.10
2018-01-16T03:01:51.997Z,11.07
2018-01-16T03:04:19.728Z,11.17
2018-01-16T03:06:48.197Z,19.47
2018-01-16T03:09:15.949Z,11.67
2018-01-16T03:11:43.662Z,12.90
2018-01-16T03:14:11.316Z,15.43
2018-01-16T03:16:39.016Z,16.57
2018-01-16T03:19:06.976Z,16.03
2018-01-16T03:21:34.673Z,13.63
2018-01-16T03:24:02.400Z,12.03
2018-01-16T03:26:30.059Z,16.20
2018-01-16T03:28:57.782Z,13.30
2018-01-16T03:31:25.851Z,12.87
2018-01-16T03:33:53.521Z,14.93
2018-01-16T03:36:21.754Z,16.90
2018-01-16T03:38:49.462Z,21.97
2018-01-16T03:41:17.192Z,18.63
2018-01-16T03:43:44.886Z,14.93
2018-01-16T03:46:12.570Z,14.70
2018-01-16T03:48:40.997Z,16.87
2018-01-16T03:51:08.706Z,12.33
2018-01-16T03:53:36.413Z,15.60
2018-01-16T03:56:04.111Z,12.63
2018-01-16T03:58:31.773Z,14.50
2018-01-16T04:01:00.575Z,16.80
2018-01-16T04:03:28.224Z,18.00
2018-01-16T04:05:55.919Z,13.43
2018-01-16T04:08:23.597Z,15.17
2018-01-16T04:10:51.270Z,9.40
2018-01-16T04:13:18.982Z,9.77
2018-01-16T04:15:46.674Z,11.83
2018-01-16T04:18:14.314Z,9.97
2018-01-16T04:20:42.023Z,11.50
2018-01-16T04:23:09.743Z,12.53
2018-01-16T04:25:37.393Z,13.97
2018-01-16T04:28:05.082Z,11.50
2018-01-16T04:30:34.294Z,9.60
2018-01-16T04:33:02.779Z,11.77
2018-01-16T04:35:30.465Z,11.30
2018-01-16T04:37:58.163Z,8.23
2018-01-16T04:40:25.845Z,7.80
2018-01-16T04:42:53.536Z,9.10
2018-01-16T04:45:21.993Z,10.83
2018-01-16T04:47:49.652Z,9.27
2018-01-16T04:50:17.345Z,11.80
2018-01-16T04:52:45.807Z,9.60
2018-01-16T04:55:13.508Z,4.50
2018-01-16T04:57:41.170Z,1.90
2018-01-16T05:00:09.054Z,3.53
2018-01-16T05:02:36.735Z,2.80
2018-01-16T05:05:04.461Z,5.03
2018-01-16T05:07:32.147Z,7.67
2018-01-16T05:09:59.851Z,3.13
2018-01-16T05:12:27.541Z,2.77
2018-01-16T05:14:55.998Z,4.20
2018-01-16T05:17:23.673Z,5.77
2018-01-16T05:19:52.131Z,3.10
2018-01-16T05:22:19.823Z,1.70
2018-01-16T05:24:47.501Z,2.50
2018-01-16T05:27:15.196Z,2.27
2018-01-16T05:29:44.134Z,2.00
2018-01-16T05:32:11.796Z,1.50
2018-01-16T05:34:40.245Z,1.67
2018-01-16T05:37:07.927Z,1.67
2018-01-16T05:39:35.658Z,4.00
2018-01-16T05:42:03.364Z,2.60
2018-01-16T05:44:31.050Z,1.60
2018-01-16T05:46:58.758Z,1.70
2018-01-16T05:49:26.437Z,3.43
2018-01-16T05:51:54.279Z,1.77
2018-01-16T05:54:21.952Z,1.97
2018-01-16T05:56:49.653Z,3.83
2018-01-16T05:59:18.130Z,2.40
2018-01-16T06:01:45.794Z,3.30
2018-01-16T06:04:13.494Z,4.57
2018-01-16T06:06:41.174Z,3.63
2018-01-16T06:09:08.874Z,5.70
2018-01-16T06:11:36.547Z,4.33
2018-01-16T06:14:04.221Z,5.47
2018-01-16T06:16:32.251Z,5.57
2018-01-16T06:18:59.925Z,3.83
2018-01-16T06:21:27.830Z,3.63
2018-01-16T06:23:55.550Z,6.50
2018-01-16T06:26:23.185Z,3.50
2018-01-16T06:28:50.891Z,4.93
2018-01-16T06:31:18.618Z,4.90
2018-01-16T06:33:46.272Z,3.40
2018-01-16T06:36:13.987Z,5.17
2018-01-16T06:38:41.661Z,2.93
2018-01-16T06:41:09.352Z,5.07
2018-01-16T06:43:37.044Z,2.40
2018-01-16T06:46:04.617Z,2.60
2018-01-16T06:48:32.265Z,2.40
2018-01-16T06:51:00.319Z,2.33
2018-01-16T06:53:28.019Z,1.27
2018-01-16T06:55:55.734Z,2.03
2018-01-16T06:58:23.430Z,1.63
2018-01-16T07:00:51.137Z,1.63
2018-01-16T07:03:18.773Z,5.30
2018-01-16T07:05:46.432Z,2.47
2018-01-16T07:08:14.157Z,1.47
2018-01-16T07:10:41.769Z,1.40
2018-01-16T07:13:09.402Z,2.63
2018-01-16T07:15:37.064Z,4.23
2018-01-16T07:18:04.763Z,0.60
2018-01-16T07:20:32.669Z,1.53
2018-01-16T07:23:00.392Z,0.73
2018-01-16T07:25:28.046Z,3.70
2018-01-16T07:27:55.691Z,1.53
2018-01-16T07:30:23.386Z,1.37
2018-01-16T07:32:51.083Z,1.30
2018-01-16T07:35:19.561Z,1.97
2018-01-16T07:37:47.141Z,4.87
2018-01-16T07:40:14.766Z,4.30
2018-01-16T07:42:42.438Z,5.70
2018-01-16T07:45:10.892Z,5.33
2018-01-16T07:47:38.550Z,5.80
2018-01-16T07:50:06.922Z,5.67
2018-01-16T07:52:34.631Z,4.00
2018-01-16T07:55:02.315Z,5.37
2018-01-16T07:57:30.008Z,6.37
2018-01-16T07:59:57.714Z,9.77
2018-01-16T08:02:25.403Z,5.93
2018-01-16T08:04:53.104Z,6.33
2018-01-16T08:07:20.817Z,3.97
2018-01-16T08:09:48.504Z,8.43
2018-01-16T08:12:16.196Z,4.97
2018-01-16T08:14:43.869Z,4.50
2018-01-16T08:17:11.558Z,8.77
2018-01-16T08:19:39.294Z,6.07
2018-01-16T08:22:06.991Z,8.80
2018-01-16T08:24:34.641Z,8.97
2018-01-16T08:27:02.372Z,16.60
2018-01-16T08:29:30.069Z,11.10
2018-01-16T08:31:57.755Z,8.77
2018-01-16T08:34:26.195Z,15.00
2018-01-16T08:36:53.846Z,35.23
2018-01-16T08:39:21.581Z,6.53
2018-01-16T08:41:49.318Z,31.57
2018-01-16T08:44:17.008Z,15.90
2018-01-16T08:46:44.680Z,8.03
2018-01-16T08:49:12.515Z,8.53
2018-01-16T08:51:40.170Z,10.13
2018-01-16T08:54:07.872Z,23.83
2018-01-16T08:56:35.538Z,12.83
2018-01-16T08:59:03.242Z,11.87
2018-01-16T09:01:30.899Z,26.10
2018-01-16T09:03:58.569Z,28.90
2018-01-16T09:06:26.270Z,18.47
2018-01-16T09:08:53.937Z,10.73
2018-01-16T09:11:25.754Z,11.97
2018-01-16T09:13:53.423Z,16.13
2018-01-16T09:16:21.070Z,13.07
2018-01-16T09:18:48.779Z,11.43
2018-01-16T09:21:16.458Z,35.03
2018-01-16T09:23:44.879Z,11.37
2018-01-16T09:26:12.596Z,35.37
2018-01-16T09:28:45.924Z,19.07
2018-01-16T09:31:13.952Z,22.80
2018-01-16T09:33:42.454Z,18.30
2018-01-16T09:36:10.149Z,20.50
2018-01-16T09:38:37.851Z,11.40
2018-01-16T09:41:05.708Z,17.13
2018-01-16T09:43:33.378Z,19.93
2018-01-16T09:46:01.050Z,10.90
2018-01-16T09:48:28.733Z,15.07
2018-01-16T09:50:56.411Z,21.23
2018-01-16T09:53:24.121Z,17.90
2018-01-16T09:55:51.837Z,29.23
2018-01-16T09:58:19.533Z,14.70
2018-01-16T10:00:47.190Z,15.73
2018-01-16T10:03:14.823Z,13.07
2018-01-16T10:05:42.463Z,15.97
2018-01-16T10:08:10.182Z,13.03
2018-01-16T10:10:37.995Z,10.47
2018-01-16T10:13:05.668Z,11.27
2018-01-16T10:15:34.110Z,7.00
2018-01-16T10:18:01.773Z,10.93
2018-01-16T10:20:29.487Z,7.70
2018-01-16T10:22:57.344Z,8.73
2018-01-16T10:25:25.016Z,12.70
2018-01-16T10:27:53.020Z,6.53
2018-01-16T10:30:20.933Z,8.13
2018-01-16T10:32:49.377Z,10.33
2018-01-16T10:35:17.084Z,6.73
2018-01-16T10:37:44.814Z,4.93
2018-01-16T10:40:13.622Z,4.73
2018-01-16T10:42:45.036Z,4.37
2018-01-16T10:45:13.053Z,4.77
2018-01-16T10:47:41.017Z,2.87
2018-01-16T10:50:09.469Z,4.80
2018-01-16T10:52:37.119Z,8.23
2018-01-16T10:55:04.820Z,3.97
2018-01-16T10:57:32.522Z,5.40
2018-01-16T11:00:01.389Z,5.20
2018-01-16T11:02:29.405Z,3.97
2018-01-16T11:04:57.106Z,2.70
2018-01-16T11:07:25.585Z,3.23
2018-01-16T11:09:53.328Z,4.00
2018-01-16T11:12:21.034Z,3.97
2018-01-16T11:14:48.720Z,2.40
2018-01-16T11:17:17.166Z,3.23
2018-01-16T11:19:44.851Z,3.53
2018-01-16T11:22:13.331Z,3.70
2018-01-16T11:24:40.973Z,4.23
2018-01-16T11:27:08.692Z,3.67
2018-01-16T11:29:39.570Z,2.10
2018-01-16T11:32:07.254Z,4.13
2018-01-16T11:34:34.923Z,2.07
2018-01-16T11:37:09.199Z,2.67
2018-01-16T11:39:37.071Z,3.73
2018-01-16T11:42:05.416Z,3.40
2018-01-16T11:44:33.094Z,2.50
2018-01-16T11:47:00.799Z,2.80
2018-01-16T11:49:31.756Z,2.80
2018-01-16T11:51:59.423Z,2.10
2018-01-16T11:54:27.108Z,2.00
2018-01-16T11:56:54.830Z,3.03
2018-01-16T11:59:22.534Z,3.33
2018-01-16T12:01:50.225Z,4.17
2018-01-16T12:04:17.984Z,3.27
2018-01-16T12:06:45.663Z,2.33
2018-01-16T12:09:13.289Z,5.63
2018-01-16T12:11:41.037Z,5.17
2018-01-16T12:14:08.674Z,3.27
2018-01-16T12:16:36.397Z,3.23
2018-01-16T12:19:04.213Z,4.67
2018-01-16T12:21:36.842Z,4.90
2018-01-16T12:24:04.841Z,6.50
2018-01-16T12:26:32.510Z,14.10
2018-01-16T12:29:00.176Z,3.10
2018-01-16T12:31:29.002Z,5.00
2018-01-16T12:33:56.608Z,4.10
2018-01-16T12:36:24.253Z,9.90
2018-01-16T12:38:51.953Z,6.03
2018-01-16T12:41:19.628Z,5.37
2018-01-16T12:43:47.618Z,3.20
2018-01-16T12:46:16.093Z,5.20
2018-01-16T12:48:43.784Z,5.97
2018-01-16T12:51:11.445Z,4.73
2018-01-16T12:53:39.148Z,5.13
2018-01-16T12:56:06.842Z,9.93
2018-01-16T12:58:34.522Z,8.20
2018-01-16T13:01:03.944Z,8.97
2018-01-16T13:03:31.639Z,7.17
2018-01-16T13:05:59.334Z,7.33
2018-01-16T13:08:27.063Z,5.93
2018-01-16T13:10:55.510Z,6.27
2018-01-16T13:13:23.942Z,4.90
2018-01-16T13:15:51.596Z,5.00
2018-01-16T13:18:19.279Z,10.10
2018-01-16T13:20:46.979Z,6.50
2018-01-16T13:23:14.692Z,6.47
2018-01-16T13:25:42.371Z,3.33
2018-01-16T13:28:09.968Z,4.27
2018-01-16T13:30:38.531Z,4.80
2018-01-16T13:33:06.243Z,6.77
2018-01-16T13:35:33.900Z,5.07
2018-01-16T13:38:01.561Z,4.57
2018-01-16T13:40:33.988Z,5.20
2018-01-16T13:43:02.033Z,4.03
2018-01-16T13:45:29.705Z,5.27
2018-01-16T13:47:57.386Z,5.93
2018-01-16T13:50:28.359Z,9.07
2018-01-16T13:52:56.812Z,8.13
2018-01-16T13:55:24.478Z,4.60
2018-01-16T13:57:52.152Z,5.37
2018-01-16T14:00:20.604Z,5.50
2018-01-16T14:02:48.252Z,9.40
2018-01-16T14:05:15.955Z,5.90
2018-01-16T14:07:43.645Z,6.87
2018-01-16T14:10:12.100Z,13.20
2018-01-16T14:12:39.768Z,6.83
2018-01-16T14:15:12.446Z,7.43
2018-01-16T14:17:41.677Z,5.97
2018-01-16T14:20:09.315Z,4.20
2018-01-16T14:22:37.801Z,8.47
2018-01-16T14:25:06.010Z,4.33
2018-01-16T14:27:33.739Z,4.17
2018-01-16T14:30:02.171Z,7.67
2018-01-16T14:32:29.838Z,3.67
2018-01-16T14:34:57.530Z,5.13
2018-01-16T14:37:25.194Z,6.93
2018-01-16T14:39:54.850Z,9.70
2018-01-16T14:42:22.541Z,8.93
2018-01-16T14:44:50.174Z,7.63
2018-01-16T14:47:17.831Z,6.27
2018-01-16T14:49:46.889Z,4.90
2018-01-16T14:52:18.979Z,7.40
2018-01-16T14:54:46.995Z,5.90
2018-01-16T14:57:14.714Z,9.30
2018-01-16T14:59:42.376Z,8.50
2018-01-16T15:02:10.888Z,6.73
2018-01-16T15:04:38.593Z,8.63
2018-01-16T15:07:08.224Z,4.57
2018-01-16T15:09:37.637Z,8.40
2018-01-16T15:12:05.304Z,6.80
2018-01-16T15:14:33.025Z,8.03
2018-01-16T15:17:01.901Z,13.00
2018-01-16T15:19:29.584Z,7.47
2018-01-16T15:21:57.250Z,6.43
2018-01-16T15:24:24.975Z,9.43
2018-01-16T15:26:52.704Z,8.20
2018-01-16T15:29:21.190Z,10.97
2018-01-16T15:31:49.631Z,11.87
2018-01-16T15:34:17.316Z,10.20
2018-01-16T15:36:45.038Z,10.80
2018-01-16T15:39:12.722Z,6.10
2018-01-16T15:41:40.412Z,9.77
2018-01-16T15:44:08.087Z,8.80
2018-01-16T15:46:36.524Z,3.33
2018-01-16T15:49:04.312Z,3.77
2018-01-16T15:51:32.150Z,3.03
2018-01-16T15:53:59.868Z,4.37
2018-01-16T15:56:28.265Z,4.63
2018-01-16T15:58:55.944Z,4.20
2018-01-16T16:01:33.051Z,5.10
2018-01-16T16:04:01.159Z,4.17
2018-01-16T16:06:28.846Z,7.57
2018-01-16T16:08:57.288Z,4.47
2018-01-16T16:11:25.002Z,7.13
2018-01-16T16:13:52.734Z,6.53
2018-01-16T16:16:20.436Z,6.87
2018-01-16T16:18:48.122Z,5.30
2018-01-16T16:21:19.064Z,5.10
2018-01-16T16:23:46.733Z,6.33
2018-01-16T16:26:14.445Z,7.47
2018-01-16T16:28:42.917Z,5.93
2018-01-16T16:31:10.620Z,8.73
2018-01-16T16:33:38.311Z,5.30
2018-01-16T16:36:06.055Z,9.23
2018-01-16T16:38:34.173Z,6.37
2018-01-16T16:41:01.927Z,6.77
2018-01-16T16:43:29.599Z,7.30
2018-01-16T16:45:57.283Z,9.17
2018-01-16T16:48:24.953Z,11.60
2018-01-16T16:50:56.373Z,8.30
2018-01-16T16:53:24.085Z,8.30
2018-01-16T16:55:51.814Z,10.63
2018-01-16T16:58:19.518Z,8.80
2018-01-16T17:00:47.194Z,8.67
2018-01-16T17:03:14.907Z,11.43
2018-01-16T17:05:43.383Z,9.43
2018-01-16T17:08:11.070Z,8.77
2018-01-16T17:10:39.546Z,11.00
2018-01-16T17:13:07.547Z,10.77
2018-01-16T17:15:35.216Z,10.10
2018-01-16T17:18:02.917Z,13.83
2018-01-16T17:20:33.880Z,7.83
2018-01-16T17:23:02.341Z,12.53
2018-01-16T17:25:30.032Z,11.17
2018-01-16T17:27:58.513Z,10.27
2018-01-16T17:30:26.242Z,11.30
2018-01-16T17:32:53.943Z,8.63
2018-01-16T17:35:22.937Z,12.77
2018-01-16T17:37:51.394Z,12.47
2018-01-16T17:40:19.097Z,8.70
2018-01-16T17:42:46.821Z,10.70
2018-01-16T17:45:14.553Z,10.93
2018-01-16T17:47:42.206Z,11.27
2018-01-16T17:50:11.154Z,15.40
2018-01-16T17:52:38.858Z,9.30
2018-01-16T17:55:06.543Z,9.63
2018-01-16T17:57:34.187Z,13.07
2018-01-16T18:00:01.846Z,10.67
2018-01-16T18:02:29.567Z,14.03
2018-01-16T18:04:57.268Z,12.83
2018-01-16T18:07:24.920Z,11.07
2018-01-16T18:09:53.387Z,11.87
2018-01-16T18:12:21.054Z,8.13
2018-01-16T18:14:48.732Z,11.43
2018-01-16T18:17:17.170Z,9.70
2018-01-16T18:19:45.805Z,7.27
2018-01-16T18:22:13.513Z,14.17
2018-01-16T18:24:41.245Z,9.10
2018-01-16T18:27:08.959Z,13.23
2018-01-16T18:29:36.643Z,12.93
2018-01-16T18:32:04.354Z,9.90
2018-01-16T18:34:32.061Z,8.53
2018-01-16T18:37:01.459Z,8.53
2018-01-16T18:39:29.482Z,12.87
2018-01-16T18:41:57.182Z,11.57
2018-01-16T18:44:24.860Z,8.17
2018-01-16T18:46:52.521Z,10.10
2018-01-16T18:49:20.175Z,8.30
2018-01-16T18:51:48.066Z,9.13
2018-01-16T18:54:15.767Z,12.57
2018-01-16T18:56:43.423Z,10.53
2018-01-16T18:59:11.111Z,10.27
2018-01-16T19:01:38.958Z,9.73
2018-01-16T19:04:06.574Z,8.57
2018-01-16T19:06:34.255Z,10.30
2018-01-16T19:09:02.682Z,9.63
2018-01-16T19:11:31.461Z,14.17
2018-01-16T19:13:59.249Z,13.40
2018-01-16T19:16:26.901Z,11.00
2018-01-16T19:18:54.583Z,9.47
2018-01-16T19:21:22.402Z,10.80
2018-01-16T19:23:50.377Z,13.70
2018-01-16T19:26:19.119Z,12.03
2018-01-16T19:28:47.077Z,15.07
2018-01-16T19:31:16.247Z,19.00
2018-01-16T19:33:44.291Z,12.83
2018-01-16T19:36:11.994Z,18.30
2018-01-16T19:38:39.878Z,18.17
2018-01-16T19:41:11.416Z,14.97
2018-01-16T19:43:39.186Z,14.73
2018-01-16T19:46:06.926Z,14.57
2018-01-16T19:48:35.557Z,16.90
2018-01-16T19:51:03.418Z,15.00
2018-01-16T19:53:31.430Z,17.47
2018-01-16T19:55:59.372Z,14.70
2018-01-16T19:58:27.077Z,16.97
2018-01-16T20:00:54.794Z,14.67
2018-01-16T20:03:22.639Z,17.93
2018-01-16T20:05:50.374Z,15.87
2018-01-16T20:08:18.365Z,22.47
2018-01-16T20:10:47.456Z,15.23
2018-01-16T20:13:15.408Z,15.33
2018-01-16T20:15:44.032Z,19.80
2018-01-16T20:18:12.194Z,17.33
2018-01-16T20:20:40.022Z,13.03
2018-01-16T20:23:07.801Z,14.17
2018-01-16T20:25:36.146Z,15.37
2018-01-16T20:28:03.897Z,15.10
2018-01-16T20:30:31.654Z,17.13
2018-01-16T20:32:59.393Z,15.23
2018-01-16T20:35:27.229Z,17.97
2018-01-16T20:37:54.981Z,17.00
2018-01-16T20:40:23.703Z,15.20
2018-01-16T20:42:51.375Z,13.40
2018-01-16T20:45:19.098Z,11.87
2018-01-16T20:47:46.849Z,13.30
2018-01-16T20:50:14.548Z,10.87
2018-01-16T20:52:42.291Z,12.80
2018-01-16T20:55:10.725Z,16.17
2018-01-16T20:57:38.385Z,12.83
2018-01-16T21:00:06.081Z,14.10
2018-01-16T21:02:33.710Z,10.40
2018-01-16T21:05:01.411Z,13.83
2018-01-16T21:07:29.069Z,15.57
2018-01-16T21:10:00.293Z,10.37
2018-01-16T21:12:27.974Z,14.73
2018-01-16T21:14:55.589Z,10.57
2018-01-16T21:17:23.287Z,10.40
2018-01-16T21:19:50.965Z,11.47
2018-01-16T21:22:18.664Z,8.57
2018-01-16T21:24:46.335Z,10.83
2018-01-16T21:27:15.048Z,12.90
2018-01-16T21:29:42.742Z,13.77
2018-01-16T21:32:10.426Z,11.77
2018-01-16T21:34:38.081Z,14.30
2018-01-16T21:37:05.763Z,14.27
2018-01-16T21:39:37.649Z,13.03
2018-01-16T21:42:05.292Z,13.57
2018-01-16T21:44:33.856Z,10.97
2018-01-16T21:47:01.541Z,14.10
2018-01-16T21:49:29.995Z,13.43
2018-01-16T21:51:57.670Z,13.73
2018-01-16T21:54:25.407Z,11.80
2018-01-16T21:56:53.120Z,14.07
2018-01-16T21:59:21.548Z,14.97
2018-01-16T22:01:49.198Z,15.63
2018-01-16T22:04:16.905Z,13.80
2018-01-16T22:06:44.623Z,12.80
2018-01-16T22:09:12.346Z,15.73
2018-01-16T22:11:40.075Z,13.40
2018-01-16T22:14:07.774Z,16.90
2018-01-16T22:16:36.268Z,16.23
2018-01-16T22:19:03.933Z,17.83
2018-01-16T22:21:32.384Z,15.00
2018-01-16T22:24:00.085Z,20.63
2018-01-16T22:26:27.755Z,17.40
2018-01-16T22:28:55.447Z,19.97
2018-01-16T22:31:26.730Z,16.67
2018-01-16T22:33:54.371Z,18.63
2018-01-16T22:36:22.064Z,16.93
2018-01-16T22:38:49.742Z,19.63
2018-01-16T22:41:18.192Z,22.43
2018-01-16T22:43:45.874Z,19.73
2018-01-16T22:46:14.322Z,21.13
2018-01-16T22:48:42.015Z,18.00
2018-01-16T22:51:10.527Z,22.80
2018-01-16T22:53:38.232Z,19.07
2018-01-16T22:56:06.044Z,18.30
2018-01-16T22:58:33.751Z,23.40
2018-01-16T23:01:02.416Z,22.63
2018-01-16T23:03:30.093Z,18.33
2018-01-16T23:05:57.844Z,19.43
2018-01-16T23:08:25.487Z,20.27
2018-01-16T23:10:53.181Z,25.03
2018-01-16T23:13:20.852Z,19.90
2018-01-16T23:15:49.263Z,20.37
2018-01-16T23:18:16.945Z,14.97
2018-01-16T23:20:45.388Z,20.97
2018-01-16T23:23:13.075Z,22.93
2018-01-16T23:25:40.715Z,15.77
2018-01-16T23:28:08.444Z,18.10
2018-01-16T23:30:37.041Z,19.13
2018-01-16T23:33:04.677Z,17.13
2018-01-16T23:35:32.351Z,18.33
2018-01-16T23:38:00.057Z,16.17
2018-01-16T23:40:27.729Z,24.33
2018-01-16T23:42:55.429Z,18.37
2018-01-16T23:45:23.130Z,18.63
2018-01-16T23:47:50.799Z,15.47
2018-01-16T23:50:18.512Z,20.30
2018-01-16T23:52:46.934Z,22.77
2018-01-16T23:55:14.612Z,18.07
2018-01-16T23:57:42.326Z,24.10
